sensor_id;sensor_type;location;lat;lon;timestamp;P1;durP1;ratioP1;P2;durP2;ratioP2
2338;SDS011;1180;51.438;6.978;2023-11-19T00:00:09;2.57;;;2.33;;
2338;SDS011;1180;51.438;6.978;2023-11-19T00:02:38;3.37;;;3.07;;
2338;SDS011;1180;51.438;6.978;2023-11-19T00:05:04;2.50;;;2.30;;
2338;SDS011;1180;51.438;6.978;2023-11-19T00:07:33;3.50;;;2.87;;
2338;SDS011;1180;51.438;6.978;2023-11-19T00:09:59;3.50;;;3.20;;
2338;SDS011;1180;51.438;6.978;2023-11-19T00:12:34;2.70;;;2.50;;
2338;SDS011;1180;51.438;6.978;2023-11-19T00:15:00;3.33;;;2.83;;
2338;SDS011;1180;51.438;6.978;2023-11-19T00:17:26;6.50;;;2.50;;
2338;SDS011;1180;51.438;6.978;2023-11-19T00:19:52;2.57;;;2.07;;
2338;SDS011;1180;51.438;6.978;2023-11-19T00:22:17;2.80;;;2.60;;
2338;SDS011;1180;51.438;6.978;2023-11-19T00:24:42;4.57;;;3.30;;
2338;SDS011;1180;51.438;6.978;2023-11-19T00:27:08;2.70;;;2.50;;
2338;SDS011;1180;51.438;6.978;2023-11-19T00:29:33;7.53;;;3.20;;
2338;SDS011;1180;51.438;6.978;2023-11-19T00:31:58;3.00;;;2.80;;
2338;SDS011;1180;51.438;6.978;2023-11-19T00:34:24;2.80;;;2.57;;
2338;SDS011;1180;51.438;6.978;2023-11-19T00:36:49;2.97;;;2.77;;
2338;SDS011;1180;51.438;6.978;2023-11-19T00:39:15;3.20;;;3.00;;
2338;SDS011;1180;51.438;6.978;2023-11-19T00:41:40;2.70;;;2.50;;
2338;SDS011;1180;51.438;6.978;2023-11-19T00:44:06;3.07;;;2.77;;
2338;SDS011;1180;51.438;6.978;2023-11-19T00:46:31;2.40;;;2.30;;
2338;SDS011;1180;51.438;6.978;2023-11-19T00:48:57;4.57;;;3.03;;
2338;SDS011;1180;51.438;6.978;2023-11-19T00:51:24;3.43;;;3.13;;
2338;SDS011;1180;51.438;6.978;2023-11-19T00:53:51;2.80;;;2.47;;
2338;SDS011;1180;51.438;6.978;2023-11-19T00:56:18;2.93;;;2.63;;
2338;SDS011;1180;51.438;6.978;2023-11-19T00:58:44;2.47;;;2.27;;
2338;SDS011;1180;51.438;6.978;2023-11-19T01:01:11;2.40;;;2.20;;
2338;SDS011;1180;51.438;6.978;2023-11-19T01:03:37;2.40;;;2.20;;
2338;SDS011;1180;51.438;6.978;2023-11-19T01:06:02;2.60;;;2.40;;
2338;SDS011;1180;51.438;6.978;2023-11-19T01:08:28;3.60;;;2.30;;
2338;SDS011;1180;51.438;6.978;2023-11-19T01:10:54;2.57;;;2.37;;
2338;SDS011;1180;51.438;6.978;2023-11-19T01:13:20;2.10;;;1.93;;
2338;SDS011;1180;51.438;6.978;2023-11-19T01:15:46;2.63;;;2.43;;
2338;SDS011;1180;51.438;6.978;2023-11-19T01:18:12;2.00;;;1.83;;
2338;SDS011;1180;51.438;6.978;2023-11-19T01:20:38;2.27;;;2.00;;
2338;SDS011;1180;51.438;6.978;2023-11-19T01:23:03;2.10;;;1.90;;
2338;SDS011;1180;51.438;6.978;2023-11-19T01:25:29;2.20;;;2.00;;
2338;SDS011;1180;51.438;6.978;2023-11-19T01:27:54;1.77;;;1.67;;
2338;SDS011;1180;51.438;6.978;2023-11-19T01:30:22;2.17;;;1.97;;
2338;SDS011;1180;51.438;6.978;2023-11-19T01:32:47;1.60;;;1.50;;
2338;SDS011;1180;51.438;6.978;2023-11-19T01:35:13;2.20;;;1.83;;
2338;SDS011;1180;51.438;6.978;2023-11-19T01:37:39;2.17;;;2.07;;
2338;SDS011;1180;51.438;6.978;2023-11-19T01:40:05;1.90;;;1.67;;
2338;SDS011;1180;51.438;6.978;2023-11-19T01:42:36;2.13;;;1.93;;
2338;SDS011;1180;51.438;6.978;2023-11-19T01:45:04;2.50;;;2.10;;
2338;SDS011;1180;51.438;6.978;2023-11-19T01:47:32;2.83;;;1.67;;
2338;SDS011;1180;51.438;6.978;2023-11-19T01:49:58;1.70;;;1.60;;
2338;SDS011;1180;51.438;6.978;2023-11-19T01:52:24;2.50;;;1.60;;
2338;SDS011;1180;51.438;6.978;2023-11-19T01:54:51;2.67;;;1.50;;
2338;SDS011;1180;51.438;6.978;2023-11-19T01:57:18;2.10;;;1.90;;
2338;SDS011;1180;51.438;6.978;2023-11-19T01:59:46;2.90;;;1.67;;
2338;SDS011;1180;51.438;6.978;2023-11-19T02:02:11;1.80;;;1.70;;
2338;SDS011;1180;51.438;6.978;2023-11-19T02:04:37;1.70;;;1.60;;
2338;SDS011;1180;51.438;6.978;2023-11-19T02:07:03;3.10;;;2.80;;
2338;SDS011;1180;51.438;6.978;2023-11-19T02:09:29;1.63;;;1.50;;
2338;SDS011;1180;51.438;6.978;2023-11-19T02:11:55;4.80;;;1.97;;
2338;SDS011;1180;51.438;6.978;2023-11-19T02:14:22;1.93;;;1.70;;
2338;SDS011;1180;51.438;6.978;2023-11-19T02:16:50;1.83;;;1.50;;
2338;SDS011;1180;51.438;6.978;2023-11-19T02:19:16;3.00;;;2.17;;
2338;SDS011;1180;51.438;6.978;2023-11-19T02:21:44;2.60;;;1.30;;
2338;SDS011;1180;51.438;6.978;2023-11-19T02:24:10;2.20;;;1.63;;
2338;SDS011;1180;51.438;6.978;2023-11-19T02:26:39;2.50;;;1.67;;
2338;SDS011;1180;51.438;6.978;2023-11-19T02:29:12;1.83;;;1.30;;
2338;SDS011;1180;51.438;6.978;2023-11-19T02:31:38;3.20;;;1.50;;
2338;SDS011;1180;51.438;6.978;2023-11-19T02:34:03;1.90;;;1.63;;
2338;SDS011;1180;51.438;6.978;2023-11-19T02:36:29;2.80;;;1.30;;
2338;SDS011;1180;51.438;6.978;2023-11-19T02:38:54;1.50;;;1.20;;
2338;SDS011;1180;51.438;6.978;2023-11-19T02:41:20;4.73;;;1.50;;
2338;SDS011;1180;51.438;6.978;2023-11-19T02:43:45;1.33;;;1.23;;
2338;SDS011;1180;51.438;6.978;2023-11-19T02:46:13;3.63;;;1.33;;
2338;SDS011;1180;51.438;6.978;2023-11-19T02:48:39;1.93;;;1.50;;
2338;SDS011;1180;51.438;6.978;2023-11-19T02:51:04;2.10;;;1.43;;
2338;SDS011;1180;51.438;6.978;2023-11-19T02:53:34;4.97;;;1.93;;
2338;SDS011;1180;51.438;6.978;2023-11-19T02:56:00;1.57;;;1.30;;
2338;SDS011;1180;51.438;6.978;2023-11-19T02:58:36;4.30;;;1.57;;
2338;SDS011;1180;51.438;6.978;2023-11-19T03:01:02;3.43;;;1.57;;
2338;SDS011;1180;51.438;6.978;2023-11-19T03:03:37;4.60;;;1.70;;
2338;SDS011;1180;51.438;6.978;2023-11-19T03:06:05;2.33;;;2.07;;
2338;SDS011;1180;51.438;6.978;2023-11-19T03:08:31;3.73;;;2.00;;
2338;SDS011;1180;51.438;6.978;2023-11-19T03:10:58;3.20;;;1.60;;
2338;SDS011;1180;51.438;6.978;2023-11-19T03:13:24;2.80;;;1.60;;
2338;SDS011;1180;51.438;6.978;2023-11-19T03:15:49;3.23;;;1.50;;
2338;SDS011;1180;51.438;6.978;2023-11-19T03:18:14;4.67;;;2.20;;
2338;SDS011;1180;51.438;6.978;2023-11-19T03:20:40;6.87;;;2.20;;
2338;SDS011;1180;51.438;6.978;2023-11-19T03:23:05;4.43;;;2.83;;
2338;SDS011;1180;51.438;6.978;2023-11-19T03:25:31;4.03;;;2.60;;
2338;SDS011;1180;51.438;6.978;2023-11-19T03:28:01;4.40;;;2.37;;
2338;SDS011;1180;51.438;6.978;2023-11-19T03:30:28;5.23;;;1.80;;
2338;SDS011;1180;51.438;6.978;2023-11-19T03:32:55;7.67;;;2.57;;
2338;SDS011;1180;51.438;6.978;2023-11-19T03:35:20;4.70;;;2.80;;
2338;SDS011;1180;51.438;6.978;2023-11-19T03:37:46;7.60;;;2.47;;
2338;SDS011;1180;51.438;6.978;2023-11-19T03:40:11;10.00;;;3.00;;
2338;SDS011;1180;51.438;6.978;2023-11-19T03:42:37;6.10;;;2.90;;
2338;SDS011;1180;51.438;6.978;2023-11-19T03:45:04;5.40;;;2.77;;
2338;SDS011;1180;51.438;6.978;2023-11-19T03:47:33;7.60;;;2.90;;
2338;SDS011;1180;51.438;6.978;2023-11-19T03:49:59;10.50;;;3.63;;
2338;SDS011;1180;51.438;6.978;2023-11-19T03:52:24;11.50;;;2.83;;
2338;SDS011;1180;51.438;6.978;2023-11-19T03:54:49;5.40;;;2.53;;
2338;SDS011;1180;51.438;6.978;2023-11-19T03:57:15;11.80;;;3.70;;
2338;SDS011;1180;51.438;6.978;2023-11-19T03:59:43;6.97;;;2.90;;
2338;SDS011;1180;51.438;6.978;2023-11-19T04:02:09;8.17;;;3.47;;
2338;SDS011;1180;51.438;6.978;2023-11-19T04:04:35;9.03;;;3.17;;
2338;SDS011;1180;51.438;6.978;2023-11-19T04:07:00;4.47;;;2.93;;
2338;SDS011;1180;51.438;6.978;2023-11-19T04:09:28;5.83;;;2.63;;
2338;SDS011;1180;51.438;6.978;2023-11-19T04:11:53;13.87;;;4.50;;
2338;SDS011;1180;51.438;6.978;2023-11-19T04:14:18;8.80;;;3.83;;
2338;SDS011;1180;51.438;6.978;2023-11-19T04:16:44;7.70;;;2.93;;
2338;SDS011;1180;51.438;6.978;2023-11-19T04:19:10;9.60;;;2.97;;
2338;SDS011;1180;51.438;6.978;2023-11-19T04:21:36;9.87;;;3.67;;
2338;SDS011;1180;51.438;6.978;2023-11-19T04:24:01;5.17;;;3.23;;
2338;SDS011;1180;51.438;6.978;2023-11-19T04:26:26;14.33;;;4.33;;
2338;SDS011;1180;51.438;6.978;2023-11-19T04:28:52;15.10;;;3.60;;
2338;SDS011;1180;51.438;6.978;2023-11-19T04:31:17;5.57;;;2.83;;
2338;SDS011;1180;51.438;6.978;2023-11-19T04:33:42;10.20;;;3.47;;
2338;SDS011;1180;51.438;6.978;2023-11-19T04:36:12;12.00;;;5.13;;
2338;SDS011;1180;51.438;6.978;2023-11-19T04:38:39;16.63;;;4.20;;
2338;SDS011;1180;51.438;6.978;2023-11-19T04:41:05;13.60;;;4.60;;
2338;SDS011;1180;51.438;6.978;2023-11-19T04:43:31;11.10;;;3.80;;
2338;SDS011;1180;51.438;6.978;2023-11-19T04:45:57;11.03;;;3.40;;
2338;SDS011;1180;51.438;6.978;2023-11-19T04:48:23;13.03;;;4.10;;
2338;SDS011;1180;51.438;6.978;2023-11-19T04:50:49;9.03;;;3.80;;
2338;SDS011;1180;51.438;6.978;2023-11-19T04:53:15;19.50;;;4.20;;
2338;SDS011;1180;51.438;6.978;2023-11-19T04:55:41;8.17;;;3.90;;
2338;SDS011;1180;51.438;6.978;2023-11-19T04:58:06;11.43;;;3.37;;
2338;SDS011;1180;51.438;6.978;2023-11-19T05:00:32;18.83;;;4.87;;
2338;SDS011;1180;51.438;6.978;2023-11-19T05:02:57;19.03;;;4.43;;
2338;SDS011;1180;51.438;6.978;2023-11-19T05:05:23;19.43;;;5.00;;
2338;SDS011;1180;51.438;6.978;2023-11-19T05:07:48;12.80;;;3.87;;
2338;SDS011;1180;51.438;6.978;2023-11-19T05:10:14;17.77;;;4.93;;
2338;SDS011;1180;51.438;6.978;2023-11-19T05:12:39;13.70;;;3.83;;
2338;SDS011;1180;51.438;6.978;2023-11-19T05:15:06;12.93;;;3.30;;
2338;SDS011;1180;51.438;6.978;2023-11-19T05:17:32;17.20;;;5.00;;
2338;SDS011;1180;51.438;6.978;2023-11-19T05:19:58;13.33;;;5.00;;
2338;SDS011;1180;51.438;6.978;2023-11-19T05:22:23;16.60;;;4.40;;
2338;SDS011;1180;51.438;6.978;2023-11-19T05:24:49;13.67;;;5.07;;
2338;SDS011;1180;51.438;6.978;2023-11-19T05:27:14;17.93;;;3.90;;
2338;SDS011;1180;51.438;6.978;2023-11-19T05:29:40;19.57;;;4.40;;
2338;SDS011;1180;51.438;6.978;2023-11-19T05:32:06;9.00;;;4.37;;
2338;SDS011;1180;51.438;6.978;2023-11-19T05:34:32;13.53;;;3.77;;
2338;SDS011;1180;51.438;6.978;2023-11-19T05:36:57;13.40;;;3.90;;
2338;SDS011;1180;51.438;6.978;2023-11-19T05:39:23;18.20;;;3.97;;
2338;SDS011;1180;51.438;6.978;2023-11-19T05:41:49;13.23;;;4.70;;
2338;SDS011;1180;51.438;6.978;2023-11-19T05:44:14;10.27;;;3.70;;
2338;SDS011;1180;51.438;6.978;2023-11-19T05:46:40;13.47;;;4.20;;
2338;SDS011;1180;51.438;6.978;2023-11-19T05:49:07;9.80;;;3.33;;
2338;SDS011;1180;51.438;6.978;2023-11-19T05:51:36;14.47;;;4.00;;
2338;SDS011;1180;51.438;6.978;2023-11-19T05:54:03;16.20;;;4.27;;
2338;SDS011;1180;51.438;6.978;2023-11-19T05:56:29;7.33;;;3.60;;
2338;SDS011;1180;51.438;6.978;2023-11-19T05:58:57;16.03;;;3.80;;
2338;SDS011;1180;51.438;6.978;2023-11-19T06:01:23;14.33;;;4.87;;
2338;SDS011;1180;51.438;6.978;2023-11-19T06:03:48;11.80;;;3.60;;
2338;SDS011;1180;51.438;6.978;2023-11-19T06:06:15;17.60;;;4.90;;
2338;SDS011;1180;51.438;6.978;2023-11-19T06:08:40;11.57;;;3.47;;
2338;SDS011;1180;51.438;6.978;2023-11-19T06:11:05;12.37;;;4.13;;
2338;SDS011;1180;51.438;6.978;2023-11-19T06:13:31;16.67;;;4.40;;
2338;SDS011;1180;51.438;6.978;2023-11-19T06:15:56;13.77;;;3.50;;
2338;SDS011;1180;51.438;6.978;2023-11-19T06:18:21;12.33;;;3.90;;
2338;SDS011;1180;51.438;6.978;2023-11-19T06:20:48;16.73;;;4.00;;
2338;SDS011;1180;51.438;6.978;2023-11-19T06:23:14;13.87;;;4.10;;
2338;SDS011;1180;51.438;6.978;2023-11-19T06:25:40;12.03;;;3.50;;
2338;SDS011;1180;51.438;6.978;2023-11-19T06:28:05;17.87;;;4.27;;
2338;SDS011;1180;51.438;6.978;2023-11-19T06:30:30;8.10;;;3.03;;
2338;SDS011;1180;51.438;6.978;2023-11-19T06:32:57;14.70;;;3.90;;
2338;SDS011;1180;51.438;6.978;2023-11-19T06:35:23;19.63;;;4.40;;
2338;SDS011;1180;51.438;6.978;2023-11-19T06:37:48;11.73;;;4.23;;
2338;SDS011;1180;51.438;6.978;2023-11-19T06:40:14;12.43;;;3.10;;
2338;SDS011;1180;51.438;6.978;2023-11-19T06:42:40;18.07;;;5.40;;
2338;SDS011;1180;51.438;6.978;2023-11-19T06:45:06;13.63;;;4.10;;
2338;SDS011;1180;51.438;6.978;2023-11-19T06:47:32;12.97;;;5.13;;
2338;SDS011;1180;51.438;6.978;2023-11-19T06:49:58;11.47;;;4.07;;
2338;SDS011;1180;51.438;6.978;2023-11-19T06:52:23;11.73;;;4.03;;
2338;SDS011;1180;51.438;6.978;2023-11-19T06:54:49;26.70;;;7.43;;
2338;SDS011;1180;51.438;6.978;2023-11-19T06:57:14;19.80;;;4.90;;
2338;SDS011;1180;51.438;6.978;2023-11-19T06:59:40;14.67;;;4.43;;
2338;SDS011;1180;51.438;6.978;2023-11-19T07:02:05;19.07;;;4.83;;
2338;SDS011;1180;51.438;6.978;2023-11-19T07:04:31;13.10;;;5.23;;
2338;SDS011;1180;51.438;6.978;2023-11-19T07:06:58;15.73;;;4.43;;
2338;SDS011;1180;51.438;6.978;2023-11-19T07:09:24;12.53;;;4.63;;
2338;SDS011;1180;51.438;6.978;2023-11-19T07:11:50;15.07;;;4.17;;
2338;SDS011;1180;51.438;6.978;2023-11-19T07:14:18;15.23;;;4.97;;
2338;SDS011;1180;51.438;6.978;2023-11-19T07:16:44;15.30;;;4.33;;
2338;SDS011;1180;51.438;6.978;2023-11-19T07:19:11;16.77;;;5.27;;
2338;SDS011;1180;51.438;6.978;2023-11-19T07:21:39;17.37;;;4.63;;
2338;SDS011;1180;51.438;6.978;2023-11-19T07:24:09;16.50;;;5.27;;
2338;SDS011;1180;51.438;6.978;2023-11-19T07:26:35;9.10;;;3.63;;
2338;SDS011;1180;51.438;6.978;2023-11-19T07:29:00;12.97;;;4.77;;
2338;SDS011;1180;51.438;6.978;2023-11-19T07:31:26;20.33;;;4.80;;
2338;SDS011;1180;51.438;6.978;2023-11-19T07:33:52;13.00;;;3.83;;
2338;SDS011;1180;51.438;6.978;2023-11-19T07:36:18;14.07;;;5.00;;
2338;SDS011;1180;51.438;6.978;2023-11-19T07:38:45;15.50;;;5.20;;
2338;SDS011;1180;51.438;6.978;2023-11-19T07:41:11;15.50;;;5.30;;
2338;SDS011;1180;51.438;6.978;2023-11-19T07:43:38;14.60;;;5.13;;
2338;SDS011;1180;51.438;6.978;2023-11-19T07:46:05;15.33;;;4.77;;
2338;SDS011;1180;51.438;6.978;2023-11-19T07:48:35;15.10;;;4.40;;
2338;SDS011;1180;51.438;6.978;2023-11-19T07:51:01;23.93;;;4.37;;
2338;SDS011;1180;51.438;6.978;2023-11-19T07:53:27;20.90;;;5.53;;
2338;SDS011;1180;51.438;6.978;2023-11-19T07:55:53;16.90;;;4.80;;
2338;SDS011;1180;51.438;6.978;2023-11-19T07:58:19;13.33;;;4.20;;
2338;SDS011;1180;51.438;6.978;2023-11-19T08:00:44;16.17;;;4.47;;
2338;SDS011;1180;51.438;6.978;2023-11-19T08:03:09;17.60;;;4.27;;
2338;SDS011;1180;51.438;6.978;2023-11-19T08:05:35;12.40;;;3.67;;
2338;SDS011;1180;51.438;6.978;2023-11-19T08:08:01;14.47;;;3.43;;
2338;SDS011;1180;51.438;6.978;2023-11-19T08:10:26;17.37;;;4.57;;
2338;SDS011;1180;51.438;6.978;2023-11-19T08:12:52;15.60;;;5.30;;
2338;SDS011;1180;51.438;6.978;2023-11-19T08:15:17;22.23;;;6.40;;
2338;SDS011;1180;51.438;6.978;2023-11-19T08:17:42;20.60;;;6.70;;
2338;SDS011;1180;51.438;6.978;2023-11-19T08:20:08;16.43;;;5.07;;
2338;SDS011;1180;51.438;6.978;2023-11-19T08:22:38;13.20;;;4.13;;
2338;SDS011;1180;51.438;6.978;2023-11-19T08:25:04;25.20;;;5.93;;
2338;SDS011;1180;51.438;6.978;2023-11-19T08:27:30;15.30;;;4.67;;
2338;SDS011;1180;51.438;6.978;2023-11-19T08:29:56;16.43;;;4.53;;
2338;SDS011;1180;51.438;6.978;2023-11-19T08:32:22;21.00;;;4.63;;
2338;SDS011;1180;51.438;6.978;2023-11-19T08:34:48;10.90;;;4.47;;
2338;SDS011;1180;51.438;6.978;2023-11-19T08:37:13;21.10;;;5.60;;
2338;SDS011;1180;51.438;6.978;2023-11-19T08:39:39;10.23;;;3.90;;
2338;SDS011;1180;51.438;6.978;2023-11-19T08:42:05;17.43;;;4.80;;
2338;SDS011;1180;51.438;6.978;2023-11-19T08:44:30;16.13;;;4.60;;
2338;SDS011;1180;51.438;6.978;2023-11-19T08:46:56;19.70;;;4.90;;
2338;SDS011;1180;51.438;6.978;2023-11-19T08:49:21;24.93;;;5.30;;
2338;SDS011;1180;51.438;6.978;2023-11-19T08:51:47;19.47;;;6.00;;
2338;SDS011;1180;51.438;6.978;2023-11-19T08:54:12;19.10;;;5.40;;
2338;SDS011;1180;51.438;6.978;2023-11-19T08:56:39;12.70;;;4.00;;
2338;SDS011;1180;51.438;6.978;2023-11-19T08:59:04;19.03;;;4.07;;
2338;SDS011;1180;51.438;6.978;2023-11-19T09:01:30;17.93;;;4.80;;
2338;SDS011;1180;51.438;6.978;2023-11-19T09:03:55;18.13;;;4.30;;
2338;SDS011;1180;51.438;6.978;2023-11-19T09:06:21;15.33;;;3.80;;
2338;SDS011;1180;51.438;6.978;2023-11-19T09:08:46;25.90;;;6.23;;
2338;SDS011;1180;51.438;6.978;2023-11-19T09:11:11;12.80;;;4.13;;
2338;SDS011;1180;51.438;6.978;2023-11-19T09:13:37;15.93;;;5.73;;
2338;SDS011;1180;51.438;6.978;2023-11-19T09:16:02;19.20;;;4.67;;
2338;SDS011;1180;51.438;6.978;2023-11-19T09:18:28;20.27;;;4.43;;
2338;SDS011;1180;51.438;6.978;2023-11-19T09:20:54;15.63;;;4.13;;
2338;SDS011;1180;51.438;6.978;2023-11-19T09:23:20;13.13;;;5.03;;
2338;SDS011;1180;51.438;6.978;2023-11-19T09:25:45;16.47;;;3.80;;
2338;SDS011;1180;51.438;6.978;2023-11-19T09:28:10;17.17;;;3.70;;
2338;SDS011;1180;51.438;6.978;2023-11-19T09:30:36;12.47;;;4.10;;
2338;SDS011;1180;51.438;6.978;2023-11-19T09:33:01;17.40;;;4.57;;
2338;SDS011;1180;51.438;6.978;2023-11-19T09:35:26;16.60;;;5.50;;
2338;SDS011;1180;51.438;6.978;2023-11-19T09:37:52;16.00;;;4.97;;
2338;SDS011;1180;51.438;6.978;2023-11-19T09:40:18;17.70;;;4.20;;
2338;SDS011;1180;51.438;6.978;2023-11-19T09:42:44;15.80;;;4.60;;
2338;SDS011;1180;51.438;6.978;2023-11-19T09:45:13;20.50;;;4.87;;
2338;SDS011;1180;51.438;6.978;2023-11-19T09:47:43;13.97;;;4.70;;
2338;SDS011;1180;51.438;6.978;2023-11-19T09:50:11;15.03;;;4.37;;
2338;SDS011;1180;51.438;6.978;2023-11-19T09:52:41;25.47;;;5.30;;
2338;SDS011;1180;51.438;6.978;2023-11-19T09:55:07;15.27;;;4.50;;
2338;SDS011;1180;51.438;6.978;2023-11-19T09:57:33;17.20;;;4.87;;
2338;SDS011;1180;51.438;6.978;2023-11-19T10:00:02;13.03;;;4.27;;
2338;SDS011;1180;51.438;6.978;2023-11-19T10:02:30;10.93;;;4.40;;
2338;SDS011;1180;51.438;6.978;2023-11-19T10:04:58;14.03;;;4.13;;
2338;SDS011;1180;51.438;6.978;2023-11-19T10:07:26;20.77;;;4.47;;
2338;SDS011;1180;51.438;6.978;2023-11-19T10:09:52;20.67;;;4.73;;
2338;SDS011;1180;51.438;6.978;2023-11-19T10:12:18;22.27;;;6.80;;
2338;SDS011;1180;51.438;6.978;2023-11-19T10:14:43;13.67;;;5.23;;
2338;SDS011;1180;51.438;6.978;2023-11-19T10:17:10;15.47;;;5.20;;
2338;SDS011;1180;51.438;6.978;2023-11-19T10:19:35;15.73;;;4.80;;
2338;SDS011;1180;51.438;6.978;2023-11-19T10:22:04;15.53;;;6.10;;
2338;SDS011;1180;51.438;6.978;2023-11-19T10:24:33;19.83;;;4.97;;
2338;SDS011;1180;51.438;6.978;2023-11-19T10:26:59;10.03;;;3.50;;
2338;SDS011;1180;51.438;6.978;2023-11-19T10:29:26;14.90;;;5.50;;
2338;SDS011;1180;51.438;6.978;2023-11-19T10:31:57;27.90;;;5.77;;
2338;SDS011;1180;51.438;6.978;2023-11-19T10:34:26;12.63;;;4.13;;
2338;SDS011;1180;51.438;6.978;2023-11-19T10:36:53;15.23;;;5.27;;
2338;SDS011;1180;51.438;6.978;2023-11-19T10:39:18;9.97;;;3.60;;
2338;SDS011;1180;51.438;6.978;2023-11-19T10:41:45;16.20;;;5.00;;
2338;SDS011;1180;51.438;6.978;2023-11-19T10:44:11;20.60;;;5.53;;
2338;SDS011;1180;51.438;6.978;2023-11-19T10:46:40;14.83;;;5.00;;
2338;SDS011;1180;51.438;6.978;2023-11-19T10:49:07;14.30;;;4.40;;
2338;SDS011;1180;51.438;6.978;2023-11-19T10:51:33;20.33;;;5.43;;
2338;SDS011;1180;51.438;6.978;2023-11-19T10:54:01;16.70;;;5.23;;
2338;SDS011;1180;51.438;6.978;2023-11-19T10:56:32;14.97;;;3.83;;
2338;SDS011;1180;51.438;6.978;2023-11-19T10:59:01;20.53;;;4.80;;
2338;SDS011;1180;51.438;6.978;2023-11-19T11:01:37;17.47;;;6.20;;
2338;SDS011;1180;51.438;6.978;2023-11-19T11:04:12;15.30;;;6.10;;
2338;SDS011;1180;51.438;6.978;2023-11-19T11:06:40;16.13;;;4.40;;
2338;SDS011;1180;51.438;6.978;2023-11-19T11:09:06;15.40;;;4.70;;
2338;SDS011;1180;51.438;6.978;2023-11-19T11:11:37;16.23;;;4.00;;
2338;SDS011;1180;51.438;6.978;2023-11-19T11:14:04;16.20;;;4.53;;
2338;SDS011;1180;51.438;6.978;2023-11-19T11:16:30;8.57;;;3.40;;
2338;SDS011;1180;51.438;6.978;2023-11-19T11:18:56;19.23;;;5.10;;
2338;SDS011;1180;51.438;6.978;2023-11-19T11:21:24;24.20;;;5.97;;
2338;SDS011;1180;51.438;6.978;2023-11-19T11:29:05;8.37;;;3.50;;
2338;SDS011;1180;51.438;6.978;2023-11-19T11:37:03;16.07;;;3.93;;
2338;SDS011;1180;51.438;6.978;2023-11-19T11:39:32;11.17;;;3.53;;
2338;SDS011;1180;51.438;6.978;2023-11-19T11:42:44;9.50;;;3.97;;
2338;SDS011;1180;51.438;6.978;2023-11-19T11:45:06;11.17;;;4.10;;
2338;SDS011;1180;51.438;6.978;2023-11-19T11:50:10;12.50;;;4.63;;
2338;SDS011;1180;51.438;6.978;2023-11-19T11:55:24;17.00;;;4.93;;
2338;SDS011;1180;51.438;6.978;2023-11-19T11:57:49;16.33;;;4.17;;
2338;SDS011;1180;51.438;6.978;2023-11-19T12:00:21;12.50;;;3.63;;
2338;SDS011;1180;51.438;6.978;2023-11-19T12:02:48;16.23;;;3.87;;
2338;SDS011;1180;51.438;6.978;2023-11-19T12:05:14;8.33;;;3.37;;
2338;SDS011;1180;51.438;6.978;2023-11-19T12:07:39;8.50;;;3.17;;
2338;SDS011;1180;51.438;6.978;2023-11-19T12:10:08;11.93;;;3.90;;
2338;SDS011;1180;51.438;6.978;2023-11-19T12:12:36;11.73;;;4.13;;
2338;SDS011;1180;51.438;6.978;2023-11-19T12:15:06;11.63;;;3.70;;
2338;SDS011;1180;51.438;6.978;2023-11-19T12:22:25;13.70;;;4.77;;
2338;SDS011;1180;51.438;6.978;2023-11-19T12:24:51;10.20;;;4.33;;
2338;SDS011;1180;51.438;6.978;2023-11-19T12:27:19;7.43;;;2.83;;
2338;SDS011;1180;51.438;6.978;2023-11-19T12:29:47;21.03;;;4.10;;
2338;SDS011;1180;51.438;6.978;2023-11-19T12:32:12;12.27;;;3.83;;
2338;SDS011;1180;51.438;6.978;2023-11-19T12:34:38;10.13;;;4.10;;
2338;SDS011;1180;51.438;6.978;2023-11-19T12:37:04;9.73;;;3.80;;
2338;SDS011;1180;51.438;6.978;2023-11-19T12:39:30;12.33;;;3.40;;
2338;SDS011;1180;51.438;6.978;2023-11-19T12:41:56;18.30;;;4.40;;
2338;SDS011;1180;51.438;6.978;2023-11-19T12:44:24;10.07;;;2.97;;
2338;SDS011;1180;51.438;6.978;2023-11-19T12:46:59;12.13;;;3.80;;
2338;SDS011;1180;51.438;6.978;2023-11-19T12:49:25;8.60;;;3.40;;
2338;SDS011;1180;51.438;6.978;2023-11-19T12:51:50;12.50;;;3.20;;
2338;SDS011;1180;51.438;6.978;2023-11-19T12:54:16;20.93;;;4.00;;
2338;SDS011;1180;51.438;6.978;2023-11-19T12:56:51;16.70;;;4.07;;
2338;SDS011;1180;51.438;6.978;2023-11-19T12:59:17;16.27;;;3.97;;
2338;SDS011;1180;51.438;6.978;2023-11-19T13:01:53;10.73;;;3.77;;
2338;SDS011;1180;51.438;6.978;2023-11-19T13:04:22;12.40;;;3.30;;
2338;SDS011;1180;51.438;6.978;2023-11-19T13:06:49;13.50;;;3.73;;
2338;SDS011;1180;51.438;6.978;2023-11-19T13:09:24;9.10;;;2.90;;
2338;SDS011;1180;51.438;6.978;2023-11-19T13:11:50;13.10;;;4.07;;
2338;SDS011;1180;51.438;6.978;2023-11-19T13:14:16;9.03;;;3.23;;
2338;SDS011;1180;51.438;6.978;2023-11-19T13:16:41;12.10;;;3.00;;
2338;SDS011;1180;51.438;6.978;2023-11-19T13:19:07;12.13;;;2.70;;
2338;SDS011;1180;51.438;6.978;2023-11-19T13:21:33;6.90;;;2.83;;
2338;SDS011;1180;51.438;6.978;2023-11-19T13:23:59;6.77;;;2.30;;
2338;SDS011;1180;51.438;6.978;2023-11-19T13:26:24;9.97;;;3.77;;
2338;SDS011;1180;51.438;6.978;2023-11-19T13:28:50;10.83;;;3.37;;
2338;SDS011;1180;51.438;6.978;2023-11-19T13:31:15;16.13;;;3.57;;
2338;SDS011;1180;51.438;6.978;2023-11-19T13:33:41;10.17;;;3.20;;
2338;SDS011;1180;51.438;6.978;2023-11-19T13:36:07;18.60;;;3.43;;
2338;SDS011;1180;51.438;6.978;2023-11-19T13:38:36;15.30;;;3.53;;
2338;SDS011;1180;51.438;6.978;2023-11-19T13:41:02;17.40;;;3.57;;
2338;SDS011;1180;51.438;6.978;2023-11-19T13:43:29;7.77;;;3.10;;
2338;SDS011;1180;51.438;6.978;2023-11-19T13:45:55;15.87;;;4.37;;
2338;SDS011;1180;51.438;6.978;2023-11-19T13:48:21;9.83;;;4.47;;
2338;SDS011;1180;51.438;6.978;2023-11-19T13:50:46;12.33;;;3.40;;
2338;SDS011;1180;51.438;6.978;2023-11-19T13:53:12;12.87;;;3.27;;
2338;SDS011;1180;51.438;6.978;2023-11-19T13:55:37;15.30;;;4.50;;
2338;SDS011;1180;51.438;6.978;2023-11-19T13:58:03;14.37;;;4.00;;
2338;SDS011;1180;51.438;6.978;2023-11-19T14:00:28;9.50;;;3.50;;
2338;SDS011;1180;51.438;6.978;2023-11-19T14:02:54;8.00;;;3.30;;
2338;SDS011;1180;51.438;6.978;2023-11-19T14:05:19;12.40;;;3.33;;
2338;SDS011;1180;51.438;6.978;2023-11-19T14:07:44;8.87;;;3.27;;
2338;SDS011;1180;51.438;6.978;2023-11-19T14:10:13;14.57;;;4.90;;
2338;SDS011;1180;51.438;6.978;2023-11-19T14:12:39;7.30;;;3.60;;
2338;SDS011;1180;51.438;6.978;2023-11-19T14:15:06;8.70;;;3.40;;
2338;SDS011;1180;51.438;6.978;2023-11-19T14:17:32;15.87;;;3.07;;
2338;SDS011;1180;51.438;6.978;2023-11-19T14:19:59;9.93;;;3.60;;
2338;SDS011;1180;51.438;6.978;2023-11-19T14:22:24;16.87;;;5.20;;
2338;SDS011;1180;51.438;6.978;2023-11-19T14:24:50;9.60;;;3.50;;
2338;SDS011;1180;51.438;6.978;2023-11-19T14:27:15;13.37;;;3.43;;
2338;SDS011;1180;51.438;6.978;2023-11-19T14:29:42;11.40;;;3.27;;
2338;SDS011;1180;51.438;6.978;2023-11-19T14:32:07;11.30;;;3.27;;
2338;SDS011;1180;51.438;6.978;2023-11-19T14:34:32;13.97;;;4.00;;
2338;SDS011;1180;51.438;6.978;2023-11-19T14:36:58;14.20;;;3.80;;
2338;SDS011;1180;51.438;6.978;2023-11-19T14:39:24;17.40;;;4.47;;
2338;SDS011;1180;51.438;6.978;2023-11-19T14:41:49;13.77;;;3.87;;
2338;SDS011;1180;51.438;6.978;2023-11-19T14:44:15;9.73;;;2.80;;
2338;SDS011;1180;51.438;6.978;2023-11-19T14:46:41;11.00;;;3.70;;
2338;SDS011;1180;51.438;6.978;2023-11-19T14:49:07;10.97;;;3.00;;
2338;SDS011;1180;51.438;6.978;2023-11-19T14:51:36;10.00;;;4.10;;
2338;SDS011;1180;51.438;6.978;2023-11-19T14:54:03;13.67;;;3.40;;
2338;SDS011;1180;51.438;6.978;2023-11-19T14:56:31;11.70;;;3.20;;
2338;SDS011;1180;51.438;6.978;2023-11-19T14:58:57;9.93;;;3.10;;
2338;SDS011;1180;51.438;6.978;2023-11-19T15:01:23;11.43;;;3.10;;
2338;SDS011;1180;51.438;6.978;2023-11-19T15:03:49;12.10;;;3.43;;
2338;SDS011;1180;51.438;6.978;2023-11-19T15:06:15;12.03;;;3.30;;
2338;SDS011;1180;51.438;6.978;2023-11-19T15:08:40;10.53;;;3.40;;
2338;SDS011;1180;51.438;6.978;2023-11-19T15:11:08;12.37;;;3.07;;
2338;SDS011;1180;51.438;6.978;2023-11-19T15:13:34;11.83;;;4.43;;
2338;SDS011;1180;51.438;6.978;2023-11-19T15:16:02;8.67;;;2.80;;
2338;SDS011;1180;51.438;6.978;2023-11-19T15:18:30;15.13;;;4.40;;
2338;SDS011;1180;51.438;6.978;2023-11-19T15:20:56;11.30;;;3.60;;
2338;SDS011;1180;51.438;6.978;2023-11-19T15:23:21;12.17;;;2.90;;